CheckWX is a tool to help pilots better visualize weather data.  It is not intended as a substitute for an official pre-flight weather briefing.

20:49:31 UTC

ETHL METAR
Laupheim Airport
Germany
Current

30 mins ago

ETHL 202020Z AUTO 07004KT 9999 // ////// 13/M02 Q1024 ///
Observed
Apr-20 @ 20:20 UTC
Wind
  • 070° at 4 KTS
Visibility
10,000+ meters
Temperature
13°C / 55°F
Dewpoint
-2°C / 28°F
Humidity
36%
Altimeter
30.24" Hg
Pressure
1023.92 hPa
Previous

1 hour ago

ETHL 201920Z AUTO 06005KT 9999 // ////// 14/M01 Q1024 ///
Observed
Apr-20 @ 19:20 UTC
Wind
  • 060° at 5 KTS
Visibility
10,000+ meters
Temperature
14°C / 57°F
Dewpoint
-1°C / 30°F
Humidity
36%
Altimeter
30.24" Hg
Pressure
1023.92 hPa
Previous

2 hours ago

ETHL 201820Z AUTO 06005KT 9999 // ////// 16/M01 Q1024 ///
Observed
Apr-20 @ 18:20 UTC
Wind
  • 060° at 5 KTS
Visibility
10,000+ meters
Temperature
16°C / 61°F
Dewpoint
-1°C / 30°F
Humidity
31%
Altimeter
30.24" Hg
Pressure
1023.92 hPa